Flight Track Log - Related Links

Times and Time Zones

All times are in EDT time to prevent confusion due to time zone crossing. See the N603ME flight status page for this flight to view local times or setup timezone preferences in your user account.

Time Position Orientation Groundspeed Altitude Reporting Facility
EDT Latitude Longitude Course Direction KTS MPH feet Rate Location/Type
04:36PM 41.4803 -80.2125 166° South 132 152 4,000  Level Cleveland Center
04:37PM 41.4344 -80.1931 162° South 143 165 4,000  Level Cleveland Center
04:38PM 41.3967 -80.1811 167° South 142 163 4,000 -48 Level Cleveland Center
04:39PM 41.3575 -80.1653 163° South 143 165 3,900 -48 Descending Cleveland Center
04:40PM 41.4197 -80.1499 167° South  Level Estimated
04:40PM 41.3183 -80.1506 164° South 144 166 3,900  Level Cleveland Center
04:41PM 41.3853 -80.1386 166° South  Level FlightAware Approximate
04:41PM 41.2806 -80.1369 165° South 144 166 3,900  Level Cleveland Center
04:42PM 41.2422 -80.1222 164° South 143 165 3,900  Level Cleveland Center
04:43PM 41.1967 -80.1064 165° South 143 165 3,900  Level Cleveland Center
04:44PM 41.1594 -80.0914 163° South 143 165 3,900  Level Cleveland Center
04:45PM 41.1222 -80.0775 164° South 141 162 3,900  Level Cleveland Center
04:46PM 41.0850 -80.0644 165° South 141 162 3,900  Level Cleveland Center
04:47PM 41.0483 -80.0506 164° South 140 161 3,900  Level Cleveland Center
04:48PM 41.0111 -80.0375 165° South 139 160 3,900  Level Cleveland Center
04:49PM 40.9669 -80.0208 164° South 139 160 3,900  Level Cleveland Center
04:50PM 40.9306 -80.0075 165° South 139 160 3,900 -48 Level Cleveland Center
04:51PM 40.8947 -80.0075 180° South 139 160 3,800 -290 Descending Cleveland Center
04:52PM 40.8597 -80.0267 202° Southwest 130 150 3,300 -435 Descending Cleveland Center
04:53PM 40.8258 -80.0456 203° Southwest 130 150 2,900 -145 Descending Cleveland Center
04:54PM 40.7967 -80.0597 200° South 120 138 3,000  Climbing Cleveland Center
04:55PM 40.7797 -80.0850 228° Southwest 100 115 2,900 -48 Descending Cleveland Center
04:56PM 40.7678 -80.1178 244° Southwest 86 99 2,900 48 Level Cleveland Center
04:57PM 40.7494 -80.1333 213° Southwest 95 109 3,000 48 Climbing Cleveland Center
04:58PM 40.7417 -80.0933 104° East 113 130 3,000 -194 Level Cleveland Center
04:59PM 40.7503 -80.0547 74° East 113 130 2,600 -435 Descending Cleveland Center
05:01PM 40.7594 -80.0175 72° East 113 130 2,100 -532 Descending Cleveland Center
05:02PM 40.7700 -79.9747 72° East 108 124 1,500 -339 Descending Cleveland Center
05:03PM 40.7789 -79.9392 72° East 107 123 1,400 -97 Descending Cleveland Center

Login

Don't have an account? Register now (free) for customized features, flight alerts, and more!